Time;durP1;ratioP1;P1;durP2;ratioP2;P2;SDS_P1;SDS_P2;PMS_P1;PMS_P2;Temp;Humidity;BMP_temperature;BMP_pressure;BME280_temperature;BME280_humidity;BME280_pressure;Samples;Min_cycle;Max_cycle;Signal;HPM_P1;HPM_P2
2021/10/14 00:01:13;;;;;;;2.47;1.77;;;;;;;8.64;76.57;100620.38;4930192;29;20492;-84
2021/10/14 00:03:43;;;;;;;6.50;1.70;;;;;;;8.71;76.00;100616.66;4930633;29;20052;-84
2021/10/14 00:06:11;;;;;;;2.67;1.70;;;;;;;8.86;75.04;100618.69;4923742;29;20488;-84
2021/10/14 00:08:38;;;;;;;6.75;3.00;;;;;;;8.86;74.94;100630.84;4917293;29;20047;-84
2021/10/14 00:11:05;;;;;;;2.33;1.90;;;;;;;8.81;75.47;100632.75;4926276;29;20063;-84
2021/10/14 00:13:32;;;;;;;3.70;1.60;;;;;;;8.72;75.69;100622.69;4929113;29;20047;-84
2021/10/14 00:15:59;;;;;;;1.80;1.50;;;;;;;8.75;75.85;100631.25;4934274;29;20094;-83
2021/10/14 00:18:25;;;;;;;4.10;1.70;;;;;;;8.73;75.66;100625.22;4934909;29;20044;-83
2021/10/14 00:20:52;;;;;;;2.70;1.55;;;;;;;8.69;76.05;100634.06;4934433;29;20499;-83
2021/10/14 00:23:21;;;;;;;6.85;3.15;;;;;;;8.63;76.53;100629.09;4934723;29;20047;-81
2021/10/14 00:25:49;;;;;;;3.38;1.90;;;;;;;8.65;76.11;100627.28;4934269;29;20044;-81
2021/10/14 00:28:15;;;;;;;2.10;1.40;;;;;;;8.66;75.94;100636.75;4934736;29;20048;-83
2021/10/14 00:30:42;;;;;;;3.13;1.80;;;;;;;8.80;74.75;100629.31;4934829;29;20039;-83
2021/10/14 00:33:09;;;;;;;2.35;1.42;;;;;;;8.85;74.47;100629.16;4934849;29;20036;-81
2021/10/14 00:35:37;;;;;;;1.88;1.60;;;;;;;8.82;74.35;100639.66;4934608;29;20071;-82
2021/10/14 00:38:03;;;;;;;1.92;1.40;;;;;;;8.91;73.70;100628.94;4934190;29;20498;-82
2021/10/14 00:40:32;;;;;;;2.55;1.90;;;;;;;8.90;73.24;100628.09;4934362;29;20055;-82
2021/10/14 00:42:58;;;;;;;3.42;1.55;;;;;;;8.89;73.33;100633.31;4934719;29;20079;-84
2021/10/14 00:45:25;;;;;;;1.90;1.50;;;;;;;8.88;73.36;100624.66;4934901;29;20100;-83
2021/10/14 00:47:54;;;;;;;4.72;2.13;;;;;;;8.93;72.63;100629.69;4935030;29;20344;-85
2021/10/14 00:50:20;;;;;;;2.35;1.55;;;;;;;9.05;71.73;100631.00;4935073;29;20095;-84
2021/10/14 00:52:48;;;;;;;4.05;1.60;;;;;;;9.01;72.20;100626.84;4934899;29;20098;-83
2021/10/14 00:55:15;;;;;;;3.28;2.22;;;;;;;8.84;73.22;100633.50;4935074;29;20127;-83
2021/10/14 00:57:42;;;;;;;2.45;1.80;;;;;;;8.92;72.89;100634.06;4934574;29;20048;-84
2021/10/14 01:00:09;;;;;;;3.50;1.50;;;;;;;8.85;73.44;100627.41;4935045;29;20048;-84
2021/10/14 01:02:36;;;;;;;7.30;1.95;;;;;;;8.85;73.21;100623.97;4934831;29;20181;-87
2021/10/14 01:05:04;;;;;;;2.10;1.58;;;;;;;8.88;73.08;100624.66;4934635;29;20044;-85
2021/10/14 01:07:31;;;;;;;1.98;1.42;;;;;;;8.82;73.66;100630.09;4935279;29;20036;-84
2021/10/14 01:09:58;;;;;;;2.80;1.52;;;;;;;8.84;73.18;100623.09;4934690;29;20044;-85
2021/10/14 01:12:27;;;;;;;3.30;1.63;;;;;;;8.88;73.40;100624.66;4934701;29;20039;-86
2021/10/14 01:14:53;;;;;;;5.53;2.03;;;;;;;8.93;72.78;100622.75;4934712;29;20054;-87
2021/10/14 01:17:20;;;;;;;2.70;1.55;;;;;;;8.91;73.14;100624.56;4935300;29;20391;-86
2021/10/14 01:19:48;;;;;;;2.00;1.63;;;;;;;8.76;73.91;100625.13;4936181;29;20099;-86
2021/10/14 01:22:14;;;;;;;2.42;2.22;;;;;;;8.83;73.41;100626.59;4936135;29;20447;-86
2021/10/14 01:24:41;;;;;;;2.05;1.60;;;;;;;8.82;73.75;100619.69;4935449;29;20091;-86
2021/10/14 01:27:09;;;;;;;5.78;1.65;;;;;;;8.64;74.50;100628.19;4935686;29;20039;-85
2021/10/14 01:29:36;;;;;;;3.38;1.65;;;;;;;8.51;75.56;100626.91;4935243;29;20055;-88
2021/10/14 01:32:04;;;;;;;3.30;2.00;;;;;;;8.46;75.83;100626.22;4934666;29;20126;-88
2021/10/14 01:34:31;;;;;;;6.88;1.70;;;;;;;8.42;75.77;100619.47;4935194;29;20185;-87
2021/10/14 01:36:59;;;;;;;2.80;1.90;;;;;;;8.33;76.55;100626.63;4917789;29;20044;-87
2021/10/14 01:39:26;;;;;;;3.30;1.80;;;;;;;8.29;76.93;100629.38;4935076;29;20052;-87
2021/10/14 01:41:53;;;;;;;5.88;3.13;;;;;;;8.25;77.56;100635.56;4934989;29;20075;-86
2021/10/14 01:44:20;;;;;;;5.35;2.72;;;;;;;8.09;79.32;100630.03;4935227;29;20051;-86
2021/10/14 01:46:47;;;;;;;6.90;3.35;;;;;;;8.02;79.49;100637.19;4935286;29;20048;-86
2021/10/14 01:49:13;;;;;;;8.00;4.35;;;;;;;7.97;79.50;100630.47;4934703;29;20044;-85
2021/10/14 01:51:40;;;;;;;4.10;3.50;;;;;;;7.93;80.19;100639.25;4937748;29;20044;-84
2021/10/14 01:54:07;;;;;;;5.57;3.60;;;;;;;7.93;80.03;100640.09;4937933;29;20091;-85
2021/10/14 01:56:34;;;;;;;4.95;3.78;;;;;;;7.90;79.82;100641.94;4938254;29;20044;-85
2021/10/14 01:59:01;;;;;;;10.95;7.82;;;;;;;6.71;87.70;100647.25;4937700;29;20044;-85
2021/10/14 02:01:27;;;;;;;14.18;10.88;;;;;;;6.07;93.81;100654.09;4921531;29;21083;-85
2021/10/14 02:03:54;;;;;;;14.20;11.48;;;;;;;6.32;94.49;100654.34;4937600;29;20052;-85
2021/10/14 02:06:21;;;;;;;17.20;12.82;;;;;;;6.49;92.85;100648.72;4938336;29;20043;-85
2021/10/14 02:08:48;;;;;;;18.25;11.57;;;;;;;6.52;92.64;100646.91;4937468;29;20059;-83
2021/10/14 02:11:15;;;;;;;14.25;11.75;;;;;;;6.50;92.49;100651.28;4937814;29;20067;-83
2021/10/14 02:13:42;;;;;;;13.13;11.50;;;;;;;6.52;93.02;100651.22;4937249;29;20068;-84
2021/10/14 02:16:09;;;;;;;14.02;11.20;;;;;;;6.53;92.79;100643.41;4937600;29;20047;-84
2021/10/14 02:18:36;;;;;;;17.23;10.45;;;;;;;6.60;92.79;100649.25;4937118;29;20056;-84
2021/10/14 02:21:03;;;;;;;15.63;11.05;;;;;;;6.65;92.01;100652.59;4937408;29;20515;-84
2021/10/14 02:23:29;;;;;;;14.05;11.80;;;;;;;6.63;91.96;100654.38;4937149;29;20479;-83
2021/10/14 02:25:56;;;;;;;13.10;9.38;;;;;;;6.63;92.31;100648.34;4936568;29;20048;-83
2021/10/14 02:28:23;;;;;;;12.68;10.32;;;;;;;6.62;92.00;100651.84;4937108;29;20040;-86
2021/10/14 02:30:50;;;;;;;10.63;8.80;;;;;;;6.70;91.72;100661.06;4937175;29;20135;-87
2021/10/14 02:33:17;;;;;;;10.60;8.00;;;;;;;6.78;90.27;100659.13;4921711;29;20118;-86
2021/10/14 02:35:43;;;;;;;10.00;6.90;;;;;;;6.62;91.06;100649.25;4937369;29;20110;-87
2021/10/14 02:38:10;;;;;;;7.82;5.63;;;;;;;6.61;90.58;100644.97;4938010;29;20071;-87
2021/10/14 02:40:37;;;;;;;6.93;5.35;;;;;;;6.81;89.32;100645.22;4937063;29;20498;-86
2021/10/14 02:43:04;;;;;;;10.07;5.32;;;;;;;6.82;89.42;100647.81;4937386;29;20197;-86
2021/10/14 02:45:31;;;;;;;7.35;3.92;;;;;;;6.91;88.50;100638.06;4937500;29;20055;-86
2021/10/14 02:47:58;;;;;;;4.97;3.35;;;;;;;6.74;88.84;100641.97;4937553;29;20063;-86
2021/10/14 02:50:24;;;;;;;5.70;3.83;;;;;;;6.79;88.72;100655.66;4937524;29;20051;-86
2021/10/14 02:52:51;;;;;;;6.70;3.75;;;;;;;6.83;88.45;100652.09;4936724;29;20078;-86
2021/10/14 02:55:18;;;;;;;3.05;2.58;;;;;;;6.89;87.83;100655.41;4937546;29;20099;-85
2021/10/14 02:57:45;;;;;;;4.97;2.83;;;;;;;6.94;87.58;100653.53;4937194;29;20047;-86
2021/10/14 03:00:12;;;;;;;7.47;3.13;;;;;;;6.95;87.27;100655.22;4937368;29;20048;-86
2021/10/14 03:02:39;;;;;;;13.52;3.88;;;;;;;6.83;88.18;100661.59;4935516;29;20052;-86
2021/10/14 03:05:06;;;;;;;4.60;2.83;;;;;;;6.80;88.65;100661.69;4937124;29;20047;-86
2021/10/14 03:07:33;;;;;;;4.88;2.65;;;;;;;6.79;88.12;100655.66;4936993;29;20043;-85
2021/10/14 03:10:06;;;;;;;3.47;2.65;;;;;;;6.76;88.22;100655.72;4937001;29;20051;-86
2021/10/14 03:12:33;;;;;;;2.70;2.50;;;;;;;6.82;88.12;100653.00;4937304;29;20111;-85
2021/10/14 03:15:00;;;;;;;5.20;2.28;;;;;;;6.77;88.15;100657.44;4936213;29;20095;-86
2021/10/14 03:17:27;;;;;;;4.35;2.60;;;;;;;6.73;88.50;100653.22;4937499;29;20111;-86
2021/10/14 03:19:54;;;;;;;6.38;2.30;;;;;;;6.74;88.71;100657.53;4936949;29;20071;-86
2021/10/14 03:22:21;;;;;;;7.15;2.10;;;;;;;6.76;88.70;100653.13;4936709;29;20047;-85
2021/10/14 03:24:49;;;;;;;6.60;2.85;;;;;;;6.83;88.01;100657.28;4936537;29;20040;-86
2021/10/14 03:27:16;;;;;;;5.15;2.20;;;;;;;6.83;87.34;100652.09;4919413;29;20186;-85
2021/10/14 03:29:42;;;;;;;3.17;2.10;;;;;;;6.89;87.91;100650.22;4936318;29;20087;-85
2021/10/14 03:32:09;;;;;;;2.65;2.08;;;;;;;6.91;87.76;100651.00;4936749;29;20039;-85
2021/10/14 03:34:36;;;;;;;2.20;1.75;;;;;;;6.94;87.92;100656.13;4936662;29;20422;-85
2021/10/14 03:37:03;;;;;;;5.10;2.03;;;;;;;6.94;88.28;100651.78;4936524;29;20459;-86
2021/10/14 03:39:30;;;;;;;4.40;2.25;;;;;;;6.95;88.96;100660.41;4936487;29;20082;-86
2021/10/14 03:41:56;;;;;;;4.03;2.42;;;;;;;6.92;89.57;100663.91;4936339;29;20052;-86
2021/10/14 03:44:23;;;;;;;3.75;2.78;;;;;;;6.88;90.02;100669.25;4936801;29;20136;-86
2021/10/14 03:46:50;;;;;;;5.47;2.47;;;;;;;6.86;91.21;100665.84;4935927;29;20042;-86
2021/10/14 03:49:19;;;;;;;4.05;2.38;;;;;;;6.99;91.17;100672.41;4936038;29;20044;-85
2021/10/14 03:51:45;;;;;;;6.60;2.25;;;;;;;6.93;92.77;100662.19;4935432;29;20099;-86
2021/10/14 03:54:12;;;;;;;2.40;2.15;;;;;;;7.01;92.69;100670.59;4935976;29;20099;-86
2021/10/14 03:56:39;;;;;;;4.32;2.33;;;;;;;7.07;93.64;100676.44;4935607;29;20058;-86
2021/10/14 03:59:05;;;;;;;5.15;2.25;;;;;;;7.00;94.66;100672.34;4918781;29;20036;-86
2021/10/14 04:01:32;;;;;;;3.42;2.65;;;;;;;7.11;95.31;100669.44;4934730;29;20047;-85
2021/10/14 04:04:00;;;;;;;5.10;3.00;;;;;;;7.07;95.84;100673.00;4935742;29;20062;-85
2021/10/14 04:06:27;;;;;;;5.20;2.30;;;;;;;7.03;96.79;100682.63;4935834;29;20529;-85
2021/10/14 04:08:54;;;;;;;5.68;2.42;;;;;;;7.00;96.70;100679.28;4935114;29;20043;-85
2021/10/14 04:11:21;;;;;;;5.60;3.10;;;;;;;6.90;97.81;100680.41;4935820;29;20048;-85
2021/10/14 04:13:50;;;;;;;3.25;2.65;;;;;;;6.96;98.23;100683.69;4938183;29;20462;-84
2021/10/14 04:16:21;;;;;;;3.28;2.50;;;;;;;7.12;97.13;100684.09;4939260;29;20084;-86
2021/10/14 04:18:48;;;;;;;2.72;2.25;;;;;;;7.07;97.21;100685.97;4936573;29;20143;-84
2021/10/14 04:21:15;;;;;;;3.83;2.33;;;;;;;7.03;96.72;100684.34;4934983;29;20103;-84
2021/10/14 04:23:43;;;;;;;6.13;2.60;;;;;;;6.91;96.85;100679.53;4934767;29;20064;-84
2021/10/14 04:26:13;;;;;;;6.97;2.80;;;;;;;6.85;97.45;100680.53;4935245;29;20478;-85
2021/10/14 04:28:40;;;;;;;2.22;2.03;;;;;;;7.04;96.84;100689.50;4935203;29;20044;-85
2021/10/14 04:31:08;;;;;;;5.70;1.90;;;;;;;7.05;96.21;100695.53;4935468;29;20040;-84
2021/10/14 04:33:36;;;;;;;4.70;2.42;;;;;;;7.03;95.86;100697.31;4935267;29;20044;-81
2021/10/14 04:36:04;;;;;;;2.55;2.13;;;;;;;6.96;95.90;100693.19;4934710;29;20115;-83
2021/10/14 04:38:31;;;;;;;2.63;2.08;;;;;;;6.86;96.22;100684.81;4934639;29;20044;-83
2021/10/14 04:40:58;;;;;;;3.30;2.08;;;;;;;6.80;96.54;100693.63;4934453;29;20475;-80
2021/10/14 04:43:25;;;;;;;4.70;2.25;;;;;;;6.57;97.73;100694.25;4934608;29;20440;-81
2021/10/14 04:45:52;;;;;;;7.63;2.10;;;;;;;6.54;98.23;100701.25;4917251;29;20094;-78
2021/10/14 04:48:18;;;;;;;2.83;2.15;;;;;;;6.49;98.70;100697.91;4929289;29;20032;-77
2021/10/14 04:50:46;;;;;;;2.20;2.00;;;;;;;6.47;98.48;100694.53;4932457;29;20087;-78
2021/10/14 04:53:12;;;;;;;5.70;2.10;;;;;;;6.41;98.74;100689.50;4933718;29;20073;-79
2021/10/14 04:55:39;;;;;;;5.30;2.72;;;;;;;6.41;99.10;100694.69;4933796;29;20040;-80
2021/10/14 04:58:06;;;;;;;4.32;2.38;;;;;;;6.44;99.15;100698.03;4934182;29;20392;-79
2021/10/14 05:00:33;;;;;;;3.78;2.33;;;;;;;6.41;98.71;100697.28;4933890;29;20402;-77
2021/10/14 05:03:00;;;;;;;2.83;1.75;;;;;;;6.40;98.50;100703.34;4933191;29;20470;-79
2021/10/14 05:05:27;;;;;;;2.85;2.28;;;;;;;6.36;98.67;100706.91;4933644;29;20079;-77
2021/10/14 05:07:53;;;;;;;4.32;2.28;;;;;;;6.25;98.65;100705.44;4916585;29;20052;-78
2021/10/14 05:10:20;;;;;;;1.90;1.73;;;;;;;6.25;99.03;100713.19;4917238;29;20048;-79
2021/10/14 05:12:47;;;;;;;3.15;2.20;;;;;;;6.27;98.74;100716.59;4933869;29;20048;-78
2021/10/14 05:15:14;;;;;;;5.30;2.42;;;;;;;6.22;98.71;100721.03;4934221;29;20040;-80
2021/10/14 05:17:40;;;;;;;6.43;2.17;;;;;;;6.33;98.26;100718.16;4933934;29;20434;-80
2021/10/14 05:20:08;;;;;;;2.65;2.28;;;;;;;6.35;98.20;100720.75;4932363;29;20048;-86
2021/10/14 05:22:35;;;;;;;3.00;2.53;;;;;;;6.40;97.43;100718.88;4925049;29;20041;-85
2021/10/14 05:25:03;;;;;;;2.70;2.42;;;;;;;6.43;96.89;100721.38;4930544;29;20107;-80
2021/10/14 05:27:30;;;;;;;7.15;2.72;;;;;;;6.46;96.34;100729.09;4930522;29;20122;-81
2021/10/14 05:29:57;;;;;;;7.82;2.75;;;;;;;6.46;95.65;100729.09;4919208;29;20116;-79
2021/10/14 05:32:24;;;;;;;6.72;2.53;;;;;;;6.45;95.10;100730.84;4930915;29;20040;-80
2021/10/14 05:34:51;;;;;;;6.63;2.38;;;;;;;6.51;93.71;100732.41;4928505;29;20109;-87
2021/10/14 05:37:17;;;;;;;2.13;1.92;;;;;;;6.40;94.25;100737.03;4929599;29;20048;-81
2021/10/14 05:39:44;;;;;;;3.97;2.20;;;;;;;6.44;93.43;100725.66;4924687;29;20040;-83
2021/10/14 05:42:11;;;;;;;3.03;2.10;;;;;;;6.52;92.96;100736.69;4930164;29;20051;-88
2021/10/14 05:44:37;;;;;;;4.07;2.83;;;;;;;6.48;92.62;100733.31;4930373;29;20035;-84
2021/10/14 05:47:04;;;;;;;9.80;4.38;;;;;;;6.47;93.09;100725.59;4932552;29;20153;-83
2021/10/14 05:49:31;;;;;;;4.30;2.10;;;;;;;6.48;93.16;100735.06;4933143;29;20051;-83
2021/10/14 05:51:58;;;;;;;8.73;2.35;;;;;;;6.56;92.92;100730.56;4926892;29;20047;-83
2021/10/14 05:54:24;;;;;;;4.35;2.67;;;;;;;6.65;92.42;100730.31;4937350;29;20063;-84
2021/10/14 05:56:51;;;;;;;4.28;2.45;;;;;;;6.65;92.33;100738.06;4933966;29;20048;-85
2021/10/14 05:59:18;;;;;;;4.93;2.83;;;;;;;6.70;92.32;100738.81;4937115;29;20039;-83
2021/10/14 06:01:45;;;;;;;3.00;2.70;;;;;;;6.70;92.22;100741.41;4937119;29;20044;-83
2021/10/14 06:04:11;;;;;;;5.28;2.70;;;;;;;6.77;92.21;100740.38;4937913;29;20058;-83
2021/10/14 06:06:39;;;;;;;3.22;2.00;;;;;;;6.87;91.71;100745.28;4920436;29;20074;-84
2021/10/14 06:09:06;;;;;;;4.53;1.95;;;;;;;6.98;91.46;100735.50;4938163;29;20044;-85
2021/10/14 06:11:33;;;;;;;3.17;2.13;;;;;;;7.14;90.42;100736.78;4937889;29;20050;-85
2021/10/14 06:14:00;;;;;;;2.17;1.98;;;;;;;7.22;90.27;100739.97;4937767;29;20039;-83
2021/10/14 06:16:26;;;;;;;2.97;2.20;;;;;;;7.30;89.81;100738.03;4937884;29;20055;-85
2021/10/14 06:18:53;;;;;;;3.13;2.00;;;;;;;7.33;89.92;100743.13;4937668;29;20106;-84
2021/10/14 06:21:20;;;;;;;4.00;2.22;;;;;;;7.46;89.25;100732.41;4938018;29;20056;-85
2021/10/14 06:23:47;;;;;;;3.00;2.28;;;;;;;7.60;88.50;100738.88;4937540;29;20040;-86
2021/10/14 06:26:13;;;;;;;4.88;2.90;;;;;;;7.66;88.55;100735.22;4937447;29;20455;-84
2021/10/14 06:28:40;;;;;;;4.25;2.10;;;;;;;7.75;87.68;100749.69;4930924;29;20107;-84
2021/10/14 06:31:07;;;;;;;5.00;2.63;;;;;;;7.88;87.39;100740.63;4937415;29;20177;-83
2021/10/14 06:33:34;;;;;;;4.82;2.42;;;;;;;7.96;86.60;100741.25;4936458;29;20063;-84
2021/10/14 06:36:01;;;;;;;8.45;4.30;;;;;;;8.06;86.21;100750.44;4936225;29;20056;-85
2021/10/14 06:38:27;;;;;;;10.02;3.42;;;;;;;8.23;85.54;100752.50;4917632;29;20147;-82
2021/10/14 06:40:54;;;;;;;9.95;3.50;;;;;;;8.30;85.91;100750.53;4935135;29;20074;-83
2021/10/14 06:43:21;;;;;;;4.38;3.20;;;;;;;8.48;84.20;100755.19;4935929;29;20051;-84
2021/10/14 06:45:50;;;;;;;4.90;3.25;;;;;;;8.65;82.96;100758.06;4939072;29;20124;-84
2021/10/14 06:48:17;;;;;;;11.98;7.15;;;;;;;8.83;81.86;100758.31;4956051;29;20102;-83
2021/10/14 06:50:43;;;;;;;11.93;6.85;;;;;;;8.58;82.54;100761.78;4942674;29;20055;-84
2021/10/14 06:53:11;;;;;;;9.45;5.53;;;;;;;8.55;82.91;100761.88;4938092;29;20048;-84
2021/10/14 06:55:39;;;;;;;10.20;5.88;;;;;;;8.61;83.37;100766.00;4937561;29;20043;-84
2021/10/14 06:58:06;;;;;;;12.05;6.43;;;;;;;8.85;82.11;100757.38;4937896;29;20118;-84
2021/10/14 07:00:33;;;;;;;11.15;6.28;;;;;;;8.95;82.29;100760.53;4937267;29;20463;-84
2021/10/14 07:03:00;;;;;;;16.55;6.82;;;;;;;8.88;82.08;100770.25;4937183;29;20075;-85
2021/10/14 07:05:27;;;;;;;11.00;5.90;;;;;;;8.97;81.43;100765.66;4937511;29;20048;-84
2021/10/14 07:07:54;;;;;;;10.23;6.07;;;;;;;8.96;82.31;100767.41;4936631;29;20044;-82
2021/10/14 07:10:22;;;;;;;11.65;6.30;;;;;;;8.92;83.01;100771.88;4937097;29;20052;-83
2021/10/14 07:12:50;;;;;;;10.93;6.57;;;;;;;9.05;82.48;100768.81;4919527;29;20051;-85
2021/10/14 07:15:17;;;;;;;11.00;6.85;;;;;;;9.08;82.70;100758.31;4920017;29;20051;-84
2021/10/14 07:17:43;;;;;;;9.57;6.68;;;;;;;9.28;82.28;100766.25;4936613;29;20432;-85
2021/10/14 07:20:11;;;;;;;14.82;7.70;;;;;;;9.35;82.39;100759.91;4920594;29;20050;-85
2021/10/14 07:22:40;;;;;;;8.85;6.18;;;;;;;9.18;82.52;100768.34;4936821;29;20099;-85
2021/10/14 07:25:07;;;;;;;15.88;7.53;;;;;;;9.16;81.96;100777.09;4937259;29;20474;-85
2021/10/14 07:27:36;;;;;;;12.38;8.23;;;;;;;9.15;81.33;100776.25;4936657;29;20055;-85
2021/10/14 07:30:06;;;;;;;10.98;7.07;;;;;;;8.99;82.65;100784.66;4936843;29;20047;-85
2021/10/14 07:32:34;;;;;;;9.18;7.00;;;;;;;8.90;83.62;100788.44;4919855;29;20059;-85
2021/10/14 07:35:03;;;;;;;11.95;6.85;;;;;;;8.85;83.56;100793.78;4936519;29;20079;-85
2021/10/14 07:37:29;;;;;;;12.30;7.53;;;;;;;8.98;83.28;100801.16;4936410;29;20102;-85
2021/10/14 07:39:56;;;;;;;22.48;8.93;;;;;;;9.09;82.52;100799.03;4936367;29;20053;-85
2021/10/14 07:42:23;;;;;;;16.73;8.73;;;;;;;9.18;82.25;100798.72;4936868;29;20082;-85
2021/10/14 07:44:50;;;;;;;20.02;8.32;;;;;;;9.22;81.75;100800.31;4936909;29;20447;-85
2021/10/14 07:47:17;;;;;;;18.00;8.93;;;;;;;9.22;82.32;100809.88;4936722;29;20054;-84
2021/10/14 07:49:46;;;;;;;19.80;9.13;;;;;;;9.27;82.08;100814.00;4936217;29;20123;-86
2021/10/14 07:52:13;;;;;;;16.45;8.68;;;;;;;9.41;81.08;100803.94;4936395;29;20522;-86
2021/10/14 07:54:39;;;;;;;25.23;8.77;;;;;;;9.44;80.90;100805.59;4944666;29;20042;-86
2021/10/14 07:57:07;;;;;;;21.83;9.18;;;;;;;9.59;80.75;100809.38;4956201;29;20047;-86
2021/10/14 07:59:34;;;;;;;16.20;8.85;;;;;;;9.78;79.54;100801.72;4956812;29;20039;-85
2021/10/14 08:02:01;;;;;;;14.40;8.25;;;;;;;9.95;78.97;100807.97;4953698;29;20051;-85
2021/10/14 08:04:28;;;;;;;23.30;9.43;;;;;;;9.97;78.37;100816.59;4947955;29;20071;-85
2021/10/14 08:06:57;;;;;;;16.90;8.35;;;;;;;9.90;77.88;100820.31;4945119;29;20048;-87
2021/10/14 08:09:26;;;;;;;13.35;7.38;;;;;;;9.99;76.68;100819.13;4937475;29;20074;-87
2021/10/14 08:11:53;;;;;;;9.15;6.95;;;;;;;10.25;76.55;100815.56;4937098;29;20071;-88
2021/10/14 08:14:20;;;;;;;14.20;7.78;;;;;;;10.40;75.46;100811.50;4937489;29;20035;-87
2021/10/14 08:16:47;;;;;;;16.00;7.20;;;;;;;10.41;75.34;100821.00;4936529;29;20058;-88
2021/10/14 08:19:14;;;;;;;21.40;7.45;;;;;;;10.32;76.26;100826.56;4936610;29;20043;-88
2021/10/14 08:21:40;;;;;;;9.93;6.13;;;;;;;10.21;77.21;100826.97;4936829;29;20047;-86
2021/10/14 08:24:07;;;;;;;16.02;6.20;;;;;;;10.35;75.93;100823.84;4936558;29;20052;-87
2021/10/14 08:26:34;;;;;;;25.60;5.93;;;;;;;10.45;74.69;100830.41;4937144;29;20221;-87
2021/10/14 08:29:00;;;;;;;18.30;6.22;;;;;;;10.48;73.96;100830.25;4936315;29;20538;-87
2021/10/14 08:31:27;;;;;;;14.57;6.00;;;;;;;10.39;74.81;100828.88;4936603;29;20055;-87
2021/10/14 08:33:54;;;;;;;14.25;6.43;;;;;;;10.49;74.27;100825.00;4935891;29;20071;-88
2021/10/14 08:36:21;;;;;;;18.95;7.72;;;;;;;10.65;72.74;100832.19;4919330;29;20088;-87
2021/10/14 08:38:48;;;;;;;20.23;6.93;;;;;;;10.69;72.29;100838.97;4936426;29;20391;-88
2021/10/14 08:41:17;;;;;;;13.73;6.22;;;;;;;10.84;71.33;100840.09;4919568;29;20048;-87
2021/10/14 08:43:46;;;;;;;11.95;7.22;;;;;;;11.15;70.74;100834.44;4936530;29;20179;-86
2021/10/14 08:46:13;;;;;;;19.48;6.28;;;;;;;10.96;70.72;100829.16;4936230;29;20042;-85
2021/10/14 08:48:41;;;;;;;11.00;6.50;;;;;;;11.22;70.01;100833.25;4936119;29;20554;-86
2021/10/14 08:51:09;;;;;;;13.38;6.65;;;;;;;11.35;68.89;100829.22;4935636;29;20043;-86
2021/10/14 08:53:37;;;;;;;17.45;6.32;;;;;;;11.57;67.78;100830.88;4936069;29;20458;-87
2021/10/14 08:56:05;;;;;;;12.65;6.75;;;;;;;11.54;68.31;100827.47;4936155;29;20047;-86
2021/10/14 08:58:33;;;;;;;6.43;4.15;;;;;;;11.42;66.79;100825.41;4938440;29;20048;-88
2021/10/14 09:01:10;;;;;;;7.68;3.97;;;;;;;11.42;66.85;100838.47;4942878;28;20499;-87
2021/10/14 09:03:49;;;;;;;9.38;4.30;;;;;;;11.80;66.36;100823.69;4939990;29;20079;-86
2021/10/14 09:06:17;;;;;;;9.07;4.65;;;;;;;11.83;66.47;100827.97;4940158;29;20356;-86
2021/10/14 09:08:50;;;;;;;17.33;4.20;;;;;;;12.04;66.27;100832.19;4940509;29;20096;-86
2021/10/14 09:11:28;;;;;;;3.92;2.50;;;;;;;12.07;65.41;100831.19;4948523;29;20170;-86
2021/10/14 09:14:07;;;;;;;14.07;5.70;;;;;;;12.17;65.69;100836.84;4949844;28;20047;-88
2021/10/14 09:16:41;;;;;;;4.00;3.17;;;;;;;12.13;65.65;100840.50;4940163;29;20099;-84
2021/10/14 09:19:12;;;;;;;4.80;3.00;;;;;;;12.26;65.02;100846.88;4948981;29;20126;-85
2021/10/14 09:21:42;;;;;;;4.20;2.80;;;;;;;12.21;64.82;100841.00;4941769;29;20051;-86
2021/10/14 09:24:46;;;;;;;6.40;3.53;;;;;;;12.34;64.75;100836.88;4947300;29;20048;-85
2021/10/14 09:27:19;;;;;;;7.82;3.03;;;;;;;12.58;62.39;100835.69;4939775;29;20111;-86
2021/10/14 09:29:45;;;;;;;8.25;3.42;;;;;;;12.89;62.84;100842.03;4939601;29;20048;-86
2021/10/14 09:32:15;;;;;;;6.45;3.83;;;;;;;12.62;62.53;100839.00;4939091;29;20043;-85
2021/10/14 09:34:49;;;;;;;;;;;;;;;12.75;60.07;100836.63;4940208;29;20134;-86
2021/10/14 09:37:17;;;;;;;8.25;3.42;;;;;;;12.85;61.11;100828.25;4940138;29;19923;-85
2021/10/14 09:39:57;;;;;;;6.70;3.83;;;;;;;13.13;60.37;100826.00;4939631;29;20194;-86
2021/10/14 09:42:41;;;;;;;7.18;3.35;;;;;;;13.13;59.86;100824.22;4920859;29;20036;-85
2021/10/14 09:45:18;;;;;;;9.75;5.10;;;;;;;12.57;60.68;100834.00;4922723;29;20112;-85
2021/10/14 09:48:05;;;;;;;16.52;4.93;;;;;;;12.68;61.46;100820.41;4942061;29;20035;-86
2021/10/14 09:50:34;;;;;;;11.05;4.38;;;;;;;13.10;59.68;100817.41;4938796;29;20051;-86
2021/10/14 09:53:03;;;;;;;9.13;4.32;;;;;;;13.29;58.12;100808.59;4940086;29;20040;-86
2021/10/14 09:55:31;;;;;;;9.27;4.72;;;;;;;13.22;56.25;100815.09;4939702;29;20103;-86
2021/10/14 09:57:59;;;;;;;13.90;7.90;;;;;;;13.23;56.08;100814.16;4940591;29;20052;-86
2021/10/14 10:00:28;;;;;;;9.35;4.65;;;;;;;12.90;55.48;100812.31;4939427;29;20040;-86
2021/10/14 10:02:59;;;;;;;9.88;4.25;;;;;;;13.06;56.23;100813.25;4940071;29;20111;-87
2021/10/14 10:05:29;;;;;;;7.47;4.30;;;;;;;13.62;55.05;100808.59;4951518;29;20039;-86
2021/10/14 10:07:58;;;;;;;7.60;4.30;;;;;;;13.82;54.30;100823.25;4935493;29;20044;-86
2021/10/14 10:10:27;;;;;;;10.85;5.15;;;;;;;13.91;52.43;100820.13;4948482;29;20043;-86
2021/10/14 10:12:56;;;;;;;7.47;4.32;;;;;;;14.43;50.31;100827.69;4941336;29;20050;-88
2021/10/14 10:15:46;;;;;;;6.50;3.15;;;;;;;14.56;49.01;100828.72;4939186;29;20039;-85
2021/10/14 10:18:28;;;;;;;6.78;3.33;;;;;;;13.99;48.00;100827.56;4939017;29;20043;-86
2021/10/14 10:21:04;;;;;;;6.68;3.20;;;;;;;14.04;47.74;100828.16;4938456;29;20058;-85
2021/10/14 10:23:43;;;;;;;10.07;5.63;;;;;;;14.06;47.95;100824.53;4938800;29;20426;-86
2021/10/14 10:26:35;;;;;;;4.65;2.65;;;;;;;14.34;44.92;100825.63;4938882;29;20071;-86
2021/10/14 10:29:16;;;;;;;3.43;2.20;;;;;;;14.56;45.98;100825.28;4939153;29;20040;-86
2021/10/14 10:31:46;;;;;;;4.43;2.10;;;;;;;14.53;44.75;100825.44;4937898;29;20569;-85
2021/10/14 10:34:37;;;;;;;5.10;1.85;;;;;;;14.31;43.17;100821.38;4938506;29;20039;-86
2021/10/14 10:37:18;;;;;;;5.43;3.13;;;;;;;14.59;43.09;100825.91;4938715;29;20047;-85
2021/10/14 10:39:50;;;;;;;2.67;1.95;;;;;;;15.17;44.16;100813.78;4938229;29;20040;-86
2021/10/14 10:42:38;;;;;;;2.38;2.15;;;;;;;15.33;42.41;100811.91;4938972;29;20185;-85
2021/10/14 10:45:11;;;;;;;4.85;2.25;;;;;;;14.91;41.83;100813.56;4942979;29;20044;-86
2021/10/14 10:47:45;;;;;;;5.20;2.85;;;;;;;14.35;44.89;100814.19;4929655;29;20044;-86
2021/10/14 10:50:42;;;;;;;6.35;2.60;;;;;;;14.80;43.71;100807.25;4941233;29;20103;-85
2021/10/14 10:53:09;;;;;;;3.35;1.83;;;;;;;14.42;44.23;100810.28;4929768;29;20047;-84
2021/10/14 10:55:50;;;;;;;4.70;2.47;;;;;;;14.79;43.88;100806.41;4937948;29;20051;-88
2021/10/14 10:58:40;;;;;;;2.88;2.25;;;;;;;14.81;42.33;100799.31;4938328;29;20083;-88
2021/10/14 11:01:07;;;;;;;2.53;1.83;;;;;;;15.26;42.00;100804.50;4927282;29;20051;-88
2021/10/14 11:03:35;;;;;;;1.70;1.40;;;;;;;14.62;41.27;100807.38;4938036;29;20074;-88
2021/10/14 11:06:10;;;;;;;3.97;2.75;;;;;;;14.58;41.66;100800.63;4937618;29;20051;-85
2021/10/14 11:08:36;;;;;;;;;;;;;;;14.42;41.43;100802.41;4938586;29;20052;-88
2021/10/14 11:11:05;;;;;;;3.67;1.92;;;;;;;14.77;41.38;100794.31;4938378;29;19985;-87
2021/10/14 11:13:36;;;;;;;2.38;2.00;;;;;;;14.73;41.72;100800.66;4920843;29;20119;-86
2021/10/14 11:16:07;;;;;;;5.28;3.58;;;;;;;14.60;42.51;100793.53;4938440;29;20044;-87
2021/10/14 11:18:35;;;;;;;3.83;2.10;;;;;;;14.53;42.59;100793.94;4937721;29;20048;-86
2021/10/14 11:21:06;;;;;;;2.58;1.95;;;;;;;14.54;43.12;100783.38;4938363;29;20072;-85
2021/10/14 11:23:37;;;;;;;3.10;2.22;;;;;;;14.34;42.94;100781.03;4943584;29;20039;-89
2021/10/14 11:26:06;;;;;;;3.72;2.08;;;;;;;14.76;43.27;100777.72;4937507;29;20452;-87
2021/10/14 11:28:55;;;;;;;4.25;2.22;;;;;;;14.67;42.77;100771.22;4937504;29;20174;-86
2021/10/14 11:31:24;;;;;;;4.72;2.88;;;;;;;15.11;42.66;100769.50;4917245;29;20044;-84
2021/10/14 11:33:52;;;;;;;2.03;1.83;;;;;;;15.22;43.05;100756.56;4933510;29;20139;-83
2021/10/14 11:36:23;;;;;;;2.50;2.13;;;;;;;15.87;41.59;100758.66;4932587;29;20514;-86